Roanoke — WDD9656 — position and weather

sailwx.info

Track history (hours):
 
Tides and Currents Weather Stations Pressure Air Temp Water Temp Dewpoint Dewpoint Depression Visibility Wind Speed Wind Dir Waves Ship Positions

Roanoke

Owner: Vane Line Bunkering, Philadelphia, PA. More information available from US FCC via Universal Licensing System and Coast Guard Vessel Documentation Center.

Last reported at 2017-Oct-15 13:07 UTC. Time now 2017-Oct-17 03:59 UTC.
Position N 38°33' W 076°28'.

Length 32 m; draft 13 m.

Type: Towing. MMSI: 367314510.

Date/timePositionNaut miles runAvg speedWind from/ knotsBaromVisibWave heightAir tempDewpointWater temp
2017-Oct-15 13:07N 38°33' W 076°28'1 8.2
2017-Oct-15 13:00N 38°34' W 076°28'5 8.3
2017-Oct-15 12:21N 38°40' W 076°28'3 8.4
2017-Oct-15 11:59N 38°43' W 076°28'5 8.4
2017-Oct-15 11:21N 38°48' W 076°27'3 8.6
2017-Oct-15 11:00N 38°51' W 076°27'4 8.7
2017-Oct-15 10:30N 38°55' W 076°25'4 8.6
2017-Oct-15 10:00N 38°59' W 076°23'4 8.5
2017-Oct-15 09:30N 39°03' W 076°22'5 7.9
2017-Oct-15 08:51N 39°08' W 076°20'3 7.5
2017-Oct-15 08:30N 39°10' W 076°18'4 7.5
2017-Oct-15 07:59N 39°13' W 076°15'3 7.1
2017-Oct-15 07:30N 39°17' W 076°14'3 6.7
2017-Oct-15 07:00N 39°20' W 076°12'3 7.0
2017-Oct-15 06:30N 39°22' W 076°08'4 7.5
2017-Oct-15 06:00N 39°24' W 076°04'4 7.8
2017-Oct-15 05:31N 39°26' W 076°00'4 8.3
2017-Oct-15 05:00N 39°29' W 075°57'4 8.6
2017-Oct-15 04:30N 39°32' W 075°52'4 7.9
2017-Oct-15 04:01N 39°32' W 075°47'5 9.5
2017-Oct-15 03:31N 39°33' W 075°41'5 9.4
2017-Oct-15 03:01N 39°34' W 075°35'3 6.4
2017-Oct-15 02:30N 39°37' W 075°35'4 8.3
2017-Oct-15 02:01N 39°40' W 075°32'4 8.1
2017-Oct-15 01:31N 39°44' W 075°30'4 7.4
2017-Oct-15 01:01N 39°47' W 075°27'3 6.1
2017-Oct-15 00:31N 39°49' W 075°24'0 0.0
2017-Oct-15 00:00N 39°49' W 075°24'2 3.7
2017-Oct-14 23:31N 39°50' W 075°22'4 8.6
2017-Oct-14 23:00N 39°51' W 075°17'4 8.7
2017-Oct-14 22:31N 39°53' W 075°12'1 1.1
2017-Oct-14 22:01N 39°54' W 075°12'0 0.0
2017-Oct-14 21:30N 39°54' W 075°12'0 0.0
2017-Oct-14 21:01N 39°54' W 075°12'0 0.0
2017-Oct-14 20:31N 39°54' W 075°12'0 0.0
2017-Oct-14 20:01N 39°54' W 075°12'0 0.0
2017-Oct-14 19:31N 39°54' W 075°12'0 0.0
2017-Oct-14 19:01N 39°54' W 075°12'0 0.0
2017-Oct-14 18:31N 39°54' W 075°12'0 0.0
2017-Oct-14 18:00N 39°54' W 075°12'1 1.4
2017-Oct-14 17:30N 39°54' W 075°12'2 3.9
2017-Oct-14 17:00N 39°52' W 075°13'4 7.7
2017-Oct-14 16:31N 39°51' W 075°18'4 7.7
2017-Oct-14 16:00N 39°49' W 075°23'1 2.3
2017-Oct-14 15:30N 39°49' W 075°24'0 1.0
2017-Oct-14 15:01N 39°49' W 075°25'4 8.2
2017-Oct-14 14:30N 39°46' W 075°29'3 6.2
2017-Oct-14 14:00N 39°43' W 075°30'0 0.1
2017-Oct-14 13:31N 39°43' W 075°30'0 0.0
2017-Oct-14 13:00N 39°43' W 075°30'0 0.2
2017-Oct-14 12:30N 39°43' W 075°30'0 0.1
2017-Oct-14 12:00N 39°43' W 075°30'0 0.0
2017-Oct-14 11:31N 39°43' W 075°30'0 0.0
2017-Oct-14 11:01N 39°43' W 075°30'0 0.1
2017-Oct-14 10:30N 39°43' W 075°30'0 0.0
2017-Oct-14 10:00N 39°43' W 075°30'0 0.1
2017-Oct-14 09:30N 39°43' W 075°30'0 0.1
2017-Oct-14 09:01N 39°43' W 075°30'0 0.1
2017-Oct-14 08:30N 39°43' W 075°30'0 0.0
2017-Oct-14 08:00N 39°43' W 075°30'0 0.0
2017-Oct-14 07:30N 39°43' W 075°30'0 0.2
2017-Oct-14 07:00N 39°43' W 075°30'3 6.6
2017-Oct-14 06:30N 39°40' W 075°32'4 7.2
2017-Oct-14 06:00N 39°37' W 075°35'4 7.0
2017-Oct-14 05:30N 39°34' W 075°33'5 9.7
2017-Oct-14 05:00N 39°33' W 075°39'5 9.2
2017-Oct-14 04:30N 39°32' W 075°45'4 7.9
2017-Oct-14 04:00N 39°32' W 075°50'4 8.2
2017-Oct-14 03:30N 39°30' W 075°55'8 8.4
2017-Oct-14 02:31N 39°24' W 076°03'0 8.0
2017-Oct-14 02:30N 39°24' W 076°03'4 7.9
2017-Oct-14 02:00N 39°22' W 076°07'4 7.7
2017-Oct-14 01:28N 39°20' W 076°12'4 7.6
2017-Oct-14 01:01N 39°17' W 076°14'10 8.0
2017-Oct-13 23:48N 39°08' W 076°20'4 8.2
2017-Oct-13 23:20N 39°05' W 076°21'3 8.3
2017-Oct-13 23:00N 39°02' W 076°22'4 7.8
2017-Oct-13 22:30N 38°58' W 076°24'4 8.3
2017-Oct-13 22:00N 38°54' W 076°25'2 3.3
2017-Oct-13 21:30N 38°53' W 076°26'3 6.2
2017-Oct-13 20:58N 38°49' W 076°27'  
2017-Oct-10 07:57N 38°01' W 076°14'4 8.7
2017-Oct-10 07:30N 38°05' W 076°15'16 8.4
2017-Oct-10 05:36N 38°20' W 076°21'1 9.3
2017-Oct-10 05:27N 38°21' W 076°21'5 9.5
2017-Oct-10 04:53N 38°26' W 076°24'22 8.5
2017-Oct-10 02:18N 38°48' W 076°26'2 8.0
2017-Oct-10 02:00N 38°50' W 076°26'6 7.7
2017-Oct-10 01:12N 38°57' W 076°24'1 7.5
2017-Oct-10 01:00N 38°58' W 076°24'4 7.2
2017-Oct-10 00:30N 39°01' W 076°23'4 7.5
2017-Oct-10 00:00N 39°05' W 076°24'4 7.8
2017-Oct-09 23:30N 39°09' W 076°25'4 7.7
2017-Oct-09 23:00N 39°11' W 076°29'4 7.9
2017-Oct-09 22:30N 39°14' W 076°33'2 3.1
2017-Oct-09 21:59N 39°15' W 076°33'1 2.1
2017-Oct-09 21:30N 39°15' W 076°34'0 0.0
2017-Oct-09 21:00N 39°15' W 076°34'0 0.0
2017-Oct-09 20:30N 39°15' W 076°34'0 1.0
2017-Oct-09 20:00N 39°15' W 076°34'1 1.2
2017-Oct-09 19:30N 39°15' W 076°33'0 0.0
2017-Oct-09 19:00N 39°15' W 076°33'0 0.0
2017-Oct-09 18:30N 39°15' W 076°33'0 0.0
2017-Oct-09 18:00N 39°15' W 076°33'0 0.0
2017-Oct-09 17:30N 39°15' W 076°33'0 0.0
2017-Oct-09 17:00N 39°15' W 076°33'0 0.0
2017-Oct-09 16:30N 39°15' W 076°33'0 0.0
2017-Oct-09 16:00N 39°15' W 076°33'0 0.0
2017-Oct-09 15:30N 39°15' W 076°33'0 0.0
2017-Oct-09 15:00N 39°15' W 076°33'0 0.0
2017-Oct-09 14:30N 39°15' W 076°33'0 0.0
2017-Oct-09 13:59N 39°15' W 076°33'0 0.0
2017-Oct-09 13:30N 39°15' W 076°33'0 0.0
2017-Oct-09 13:00N 39°15' W 076°33'0 0.0
2017-Oct-09 12:29N 39°15' W 076°33'0 0.0
2017-Oct-09 12:00N 39°15' W 076°33'0 0.0
2017-Oct-09 11:30N 39°15' W 076°33'0 0.0
2017-Oct-09 11:00N 39°15' W 076°33'0 0.0
2017-Oct-09 10:30N 39°15' W 076°33'0 0.0
2017-Oct-09 10:00N 39°15' W 076°33'0 0.0
2017-Oct-09 09:30N 39°15' W 076°33'0 0.0
2017-Oct-09 09:00N 39°15' W 076°33'0 0.0
2017-Oct-09 08:30N 39°15' W 076°33'0 0.0
2017-Oct-09 08:01N 39°15' W 076°33'0 0.0
2017-Oct-09 07:30N 39°15' W 076°33'0 0.0
2017-Oct-09 07:00N 39°15' W 076°33'0 0.0
2017-Oct-09 06:30N 39°15' W 076°33'0 0.0
2017-Oct-09 06:00N 39°15' W 076°33'0 0.0
2017-Oct-09 05:30N 39°15' W 076°33'0 0.0
2017-Oct-09 05:00N 39°15' W 076°33'0 0.0
2017-Oct-09 04:30N 39°15' W 076°33'0 0.0
2017-Oct-09 04:00N 39°15' W 076°33'0 0.0
2017-Oct-09 03:30N 39°15' W 076°33'0 0.0
2017-Oct-09 03:00N 39°15' W 076°33'0 0.0
2017-Oct-09 02:30N 39°15' W 076°33'0 0.0
2017-Oct-09 02:00N 39°15' W 076°33'0 0.0
2017-Oct-09 01:30N 39°15' W 076°33'0 0.0
2017-Oct-09 01:00N 39°15' W 076°33'0 0.0
2017-Oct-09 00:30N 39°15' W 076°33'0 0.0
2017-Oct-09 00:00N 39°15' W 076°33'0 0.0
2017-Oct-08 23:30N 39°15' W 076°33'0 0.0
2017-Oct-08 23:00N 39°15' W 076°33'0 0.0
2017-Oct-08 22:30N 39°15' W 076°33'0 0.0
2017-Oct-08 22:00N 39°15' W 076°33'0 0.0
2017-Oct-08 21:30N 39°15' W 076°33'0 0.0
2017-Oct-08 21:00N 39°15' W 076°33'0 0.0
2017-Oct-08 20:30N 39°15' W 076°33'0 0.0
2017-Oct-08 20:00N 39°15' W 076°33'0 0.0
2017-Oct-08 19:30N 39°15' W 076°33'0 0.0
2017-Oct-08 19:00N 39°15' W 076°33'3 5.4
2017-Oct-08 18:30N 39°13' W 076°32'4 7.9
2017-Oct-08 17:57N 39°11' W 076°27'3 7.7
2017-Oct-08 17:30N 39°12' W 076°23'4 7.8
2017-Oct-08 16:59N 39°15' W 076°18'4 7.7
2017-Oct-08 16:29N 39°17' W 076°14'4 7.8
2017-Oct-08 16:00N 39°20' W 076°12'4 7.4
2017-Oct-08 15:30N 39°22' W 076°08'4 7.2
2017-Oct-08 15:00N 39°24' W 076°04'4 7.1
2017-Oct-08 14:30N 39°26' W 076°00'3 6.8
2017-Oct-08 14:00N 39°29' W 075°57'3 6.4
2017-Oct-08 13:30N 39°31' W 075°54'3 5.8
2017-Oct-08 13:00N 39°32' W 075°50'3 5.5
2017-Oct-08 12:30N 39°32' W 075°47'3 6.0
2017-Oct-08 12:00N 39°33' W 075°43'3 6.0
2017-Oct-08 11:30N 39°33' W 075°39'3 6.4
2017-Oct-08 11:00N 39°33' W 075°35'2 4.3
2017-Oct-08 10:30N 39°35' W 075°34'3 6.8
2017-Oct-08 10:00N 39°39' W 075°33'4 7.7
2017-Oct-08 09:30N 39°42' W 075°31'4 7.3
2017-Oct-08 09:00N 39°46' W 075°29'3 6.7
2017-Oct-08 08:30N 39°48' W 075°26'3 6.4
2017-Oct-08 08:01N 39°50' W 075°22'3 5.1
2017-Oct-08 07:30N 39°51' W 075°20'2 5.0
2017-Oct-08 07:00N 39°51' W 075°16'2 4.6
2017-Oct-08 06:31N 39°52' W 075°14'2 4.5
2017-Oct-08 06:01N 39°53' W 075°12'1 1.0
2017-Oct-08 05:30N 39°54' W 075°12'0 0.0
2017-Oct-08 05:01N 39°54' W 075°12'1 1.0
2017-Oct-08 04:31N 39°53' W 075°12'0 0.0
2017-Oct-08 04:00N 39°53' W 075°12'0 0.0
2017-Oct-08 03:30N 39°53' W 075°12'0 0.0
2017-Oct-08 03:00N 39°53' W 075°12'0 0.0
2017-Oct-08 02:30N 39°53' W 075°12'0 0.0
2017-Oct-08 02:00N 39°53' W 075°12'0 0.0
2017-Oct-08 01:30N 39°53' W 075°12'0 0.0
2017-Oct-08 01:00N 39°53' W 075°12'0 0.0
2017-Oct-08 00:30N 39°53' W 075°12'0 0.0
2017-Oct-08 00:00N 39°53' W 075°12'0 0.0
2017-Oct-07 23:31N 39°53' W 075°12'0 0.0
2017-Oct-07 23:00N 39°53' W 075°12'0 0.0
2017-Oct-07 22:30N 39°53' W 075°12'0 0.0
2017-Oct-07 22:00N 39°53' W 075°12'0 0.2
2017-Oct-07 21:31N 39°54' W 075°12'0 0.0
2017-Oct-07 21:01N 39°54' W 075°12'0 0.0
2017-Oct-07 20:30N 39°54' W 075°12'0 0.8
2017-Oct-07 20:01N 39°54' W 075°12'0 0.4
2017-Oct-07 19:30N 39°54' W 075°12'0 0.0
2017-Oct-07 19:01N 39°54' W 075°12'0 0.2
2017-Oct-07 18:30N 39°54' W 075°12'0 0.0
2017-Oct-07 18:00N 39°54' W 075°12'0 0.0
2017-Oct-07 17:30N 39°54' W 075°12'0 0.0
2017-Oct-07 17:01N 39°54' W 075°12'0 0.0
2017-Oct-07 16:30N 39°54' W 075°12'0 0.0
2017-Oct-07 16:00N 39°54' W 075°12'1 1.6
2017-Oct-07 15:30N 39°53' W 075°12'4 8.3
2017-Oct-07 15:00N 39°51' W 075°17'510.1
2017-Oct-07 14:30N 39°49' W 075°23'5 9.6
2017-Oct-07 14:00N 39°47' W 075°28'5 9.3
2017-Oct-07 13:31N 39°42' W 075°31'4 8.8
2017-Oct-07 13:01N 39°39' W 075°34'4 7.7
2017-Oct-07 12:31N 39°35' W 075°33'4 8.4
2017-Oct-07 12:01N 39°33' W 075°38'510.8
2017-Oct-07 11:30N 39°32' W 075°45'5 9.4
2017-Oct-07 11:01N 39°32' W 075°51'5 9.4
2017-Oct-07 10:31N 39°29' W 075°57'5 9.1
2017-Oct-07 10:01N 39°26' W 076°01'4 8.8
2017-Oct-07 09:31N 39°23' W 076°05'4 8.8
2017-Oct-07 09:01N 39°21' W 076°10'4 8.5
2017-Oct-07 08:30N 39°18' W 076°13'4 8.5
2017-Oct-07 08:00N 39°14' W 076°15'4 8.4
2017-Oct-07 07:30N 39°10' W 076°18'4 8.7
2017-Oct-07 07:01N 39°06' W 076°20'4 8.9
2017-Oct-07 06:30N 39°02' W 076°22'4 8.8
2017-Oct-07 06:01N 38°58' W 076°24'4 8.9
2017-Oct-07 05:31N 38°53' W 076°25'4 8.9
2017-Oct-07 05:01N 38°49' W 076°26'5 9.1
2017-Oct-07 04:30N 38°44' W 076°27'5 9.1
2017-Oct-07 04:00N 38°40' W 076°27'5 9.2
2017-Oct-07 03:31N 38°35' W 076°27'5 9.1
2017-Oct-07 03:00N 38°31' W 076°26'5 9.0
2017-Oct-07 02:30N 38°27' W 076°23'4 8.9
2017-Oct-07 02:00N 38°23' W 076°21'5 9.0
2017-Oct-07 01:27N 38°18' W 076°19'5 8.7
2017-Oct-07 00:51N 38°14' W 076°14'10 8.0
2017-Oct-06 23:35N 38°12' W 076°02'2 8.6
2017-Oct-06 23:23N 38°13' W 075°60'8 8.2
2017-Oct-06 22:21N 38°15' W 075°49'12 1.2
2017-Oct-06 12:31N 38°22' W 075°37'0 0.0
2017-Oct-06 12:30N 38°22' W 075°37'0 0.0
2017-Oct-06 11:58N 38°22' W 075°37'0 0.0
2017-Oct-06 10:57N 38°22' W 075°37'0 0.0
2017-Oct-06 10:30N 38°22' W 075°37'0 0.0
2017-Oct-06 10:00N 38°22' W 075°37'0 0.0
2017-Oct-06 09:29N 38°22' W 075°37'0 0.0
2017-Oct-06 09:00N 38°22' W 075°37'0 0.0
2017-Oct-06 08:30N 38°22' W 075°37'0 0.0
2017-Oct-06 08:00N 38°22' W 075°37'0 0.0
2017-Oct-06 07:31N 38°22' W 075°37'0 0.0
2017-Oct-06 07:00N 38°22' W 075°37'0 0.0
2017-Oct-06 06:30N 38°22' W 075°37'0 0.0
2017-Oct-06 06:00N 38°22' W 075°37'0 0.0
2017-Oct-06 05:30N 38°22' W 075°37'0 0.0
2017-Oct-06 05:00N 38°22' W 075°37'0 0.0
2017-Oct-06 04:30N 38°22' W 075°37'0 0.0
2017-Oct-06 04:00N 38°22' W 075°37'0 0.0
2017-Oct-06 03:13N 38°22' W 075°37'0 0.0
2017-Oct-05 23:31N 38°22' W 075°37'0 0.0
2017-Oct-05 23:27N 38°22' W 075°37'0 0.0
2017-Oct-05 22:55N 38°22' W 075°37'37 4.9
2017-Oct-05 15:18N 37°48' W 075°58'3 9.0
2017-Oct-05 15:00N 37°46' W 075°59'4 8.8
2017-Oct-05 14:30N 37°42' W 076°01'4 8.5
2017-Oct-05 14:00N 37°38' W 076°03'4 8.3
2017-Oct-05 13:31N 37°34' W 076°05'  
Track history (hours):
 
Tides and Currents Weather Stations Pressure Air Temp Water Temp Dewpoint Dewpoint Depression Visibility Wind Speed Wind Dir Waves Ship Positions

Roanoke

Owner: Vane Line Bunkering, Philadelphia, PA. More information available from US FCC via Universal Licensing System and Coast Guard Vessel Documentation Center.

Last reported at 2017-Oct-15 13:07 UTC. Time now 2017-Oct-17 03:59 UTC.
Position N 38°33' W 076°28'.

Length 32 m; draft 13 m.

Type: Towing. MMSI: 367314510.

Date/timePositionNaut miles runAvg speedWind from/ knotsBaromVisibWave heightAir tempDewpointWater temp
2017-Oct-15 13:07N 38°33' W 076°28'1 8.2
2017-Oct-15 13:00N 38°34' W 076°28'5 8.3
2017-Oct-15 12:21N 38°40' W 076°28'3 8.4
2017-Oct-15 11:59N 38°43' W 076°28'5 8.4
2017-Oct-15 11:21N 38°48' W 076°27'3 8.6
2017-Oct-15 11:00N 38°51' W 076°27'4 8.7
2017-Oct-15 10:30N 38°55' W 076°25'4 8.6
2017-Oct-15 10:00N 38°59' W 076°23'4 8.5
2017-Oct-15 09:30N 39°03' W 076°22'5 7.9
2017-Oct-15 08:51N 39°08' W 076°20'3 7.5
2017-Oct-15 08:30N 39°10' W 076°18'4 7.5
2017-Oct-15 07:59N 39°13' W 076°15'3 7.1
2017-Oct-15 07:30N 39°17' W 076°14'3 6.7
2017-Oct-15 07:00N 39°20' W 076°12'3 7.0
2017-Oct-15 06:30N 39°22' W 076°08'4 7.5
2017-Oct-15 06:00N 39°24' W 076°04'4 7.8
2017-Oct-15 05:31N 39°26' W 076°00'4 8.3
2017-Oct-15 05:00N 39°29' W 075°57'4 8.6
2017-Oct-15 04:30N 39°32' W 075°52'4 7.9
2017-Oct-15 04:01N 39°32' W 075°47'5 9.5
2017-Oct-15 03:31N 39°33' W 075°41'5 9.4
2017-Oct-15 03:01N 39°34' W 075°35'3 6.4
2017-Oct-15 02:30N 39°37' W 075°35'4 8.3
2017-Oct-15 02:01N 39°40' W 075°32'4 8.1
2017-Oct-15 01:31N 39°44' W 075°30'4 7.4
2017-Oct-15 01:01N 39°47' W 075°27'3 6.1
2017-Oct-15 00:31N 39°49' W 075°24'0 0.0
2017-Oct-15 00:00N 39°49' W 075°24'2 3.7
2017-Oct-14 23:31N 39°50' W 075°22'4 8.6
2017-Oct-14 23:00N 39°51' W 075°17'4 8.7
2017-Oct-14 22:31N 39°53' W 075°12'1 1.1
2017-Oct-14 22:01N 39°54' W 075°12'0 0.0
2017-Oct-14 21:30N 39°54' W 075°12'0 0.0
2017-Oct-14 21:01N 39°54' W 075°12'0 0.0
2017-Oct-14 20:31N 39°54' W 075°12'0 0.0
2017-Oct-14 20:01N 39°54' W 075°12'0 0.0
2017-Oct-14 19:31N 39°54' W 075°12'0 0.0
2017-Oct-14 19:01N 39°54' W 075°12'0 0.0
2017-Oct-14 18:31N 39°54' W 075°12'0 0.0
2017-Oct-14 18:00N 39°54' W 075°12'1 1.4
2017-Oct-14 17:30N 39°54' W 075°12'2 3.9
2017-Oct-14 17:00N 39°52' W 075°13'4 7.7
2017-Oct-14 16:31N 39°51' W 075°18'4 7.7
2017-Oct-14 16:00N 39°49' W 075°23'1 2.3
2017-Oct-14 15:30N 39°49' W 075°24'0 1.0
2017-Oct-14 15:01N 39°49' W 075°25'4 8.2
2017-Oct-14 14:30N 39°46' W 075°29'3 6.2
2017-Oct-14 14:00N 39°43' W 075°30'0 0.1
2017-Oct-14 13:31N 39°43' W 075°30'0 0.0
2017-Oct-14 13:00N 39°43' W 075°30'0 0.2
2017-Oct-14 12:30N 39°43' W 075°30'0 0.1
2017-Oct-14 12:00N 39°43' W 075°30'0 0.0
2017-Oct-14 11:31N 39°43' W 075°30'0 0.0
2017-Oct-14 11:01N 39°43' W 075°30'0 0.1
2017-Oct-14 10:30N 39°43' W 075°30'0 0.0
2017-Oct-14 10:00N 39°43' W 075°30'0 0.1
2017-Oct-14 09:30N 39°43' W 075°30'0 0.1
2017-Oct-14 09:01N 39°43' W 075°30'0 0.1
2017-Oct-14 08:30N 39°43' W 075°30'0 0.0
2017-Oct-14 08:00N 39°43' W 075°30'0 0.0
2017-Oct-14 07:30N 39°43' W 075°30'0 0.2
2017-Oct-14 07:00N 39°43' W 075°30'3 6.6
2017-Oct-14 06:30N 39°40' W 075°32'4 7.2
2017-Oct-14 06:00N 39°37' W 075°35'4 7.0
2017-Oct-14 05:30N 39°34' W 075°33'5 9.7
2017-Oct-14 05:00N 39°33' W 075°39'5 9.2
2017-Oct-14 04:30N 39°32' W 075°45'4 7.9
2017-Oct-14 04:00N 39°32' W 075°50'4 8.2
2017-Oct-14 03:30N 39°30' W 075°55'8 8.4
2017-Oct-14 02:31N 39°24' W 076°03'0 8.0
2017-Oct-14 02:30N 39°24' W 076°03'4 7.9
2017-Oct-14 02:00N 39°22' W 076°07'4 7.7
2017-Oct-14 01:28N 39°20' W 076°12'4 7.6
2017-Oct-14 01:01N 39°17' W 076°14'10 8.0
2017-Oct-13 23:48N 39°08' W 076°20'4 8.2
2017-Oct-13 23:20N 39°05' W 076°21'3 8.3
2017-Oct-13 23:00N 39°02' W 076°22'4 7.8
2017-Oct-13 22:30N 38°58' W 076°24'4 8.3
2017-Oct-13 22:00N 38°54' W 076°25'2 3.3
2017-Oct-13 21:30N 38°53' W 076°26'3 6.2
2017-Oct-13 20:58N 38°49' W 076°27'  
2017-Oct-10 07:57N 38°01' W 076°14'4 8.7
2017-Oct-10 07:30N 38°05' W 076°15'16 8.4
2017-Oct-10 05:36N 38°20' W 076°21'1 9.3
2017-Oct-10 05:27N 38°21' W 076°21'5 9.5
2017-Oct-10 04:53N 38°26' W 076°24'22 8.5
2017-Oct-10 02:18N 38°48' W 076°26'2 8.0
2017-Oct-10 02:00N 38°50' W 076°26'6 7.7
2017-Oct-10 01:12N 38°57' W 076°24'1 7.5
2017-Oct-10 01:00N 38°58' W 076°24'4 7.2
2017-Oct-10 00:30N 39°01' W 076°23'4 7.5
2017-Oct-10 00:00N 39°05' W 076°24'4 7.8
2017-Oct-09 23:30N 39°09' W 076°25'4 7.7
2017-Oct-09 23:00N 39°11' W 076°29'4 7.9
2017-Oct-09 22:30N 39°14' W 076°33'2 3.1
2017-Oct-09 21:59N 39°15' W 076°33'1 2.1
2017-Oct-09 21:30N 39°15' W 076°34'0 0.0
2017-Oct-09 21:00N 39°15' W 076°34'0 0.0
2017-Oct-09 20:30N 39°15' W 076°34'0 1.0
2017-Oct-09 20:00N 39°15' W 076°34'1 1.2
2017-Oct-09 19:30N 39°15' W 076°33'0 0.0
2017-Oct-09 19:00N 39°15' W 076°33'0 0.0
2017-Oct-09 18:30N 39°15' W 076°33'0 0.0
2017-Oct-09 18:00N 39°15' W 076°33'0 0.0
2017-Oct-09 17:30N 39°15' W 076°33'0 0.0
2017-Oct-09 17:00N 39°15' W 076°33'0 0.0
2017-Oct-09 16:30N 39°15' W 076°33'0 0.0
2017-Oct-09 16:00N 39°15' W 076°33'0 0.0
2017-Oct-09 15:30N 39°15' W 076°33'0 0.0
2017-Oct-09 15:00N 39°15' W 076°33'0 0.0
2017-Oct-09 14:30N 39°15' W 076°33'0 0.0
2017-Oct-09 13:59N 39°15' W 076°33'0 0.0
2017-Oct-09 13:30N 39°15' W 076°33'0 0.0
2017-Oct-09 13:00N 39°15' W 076°33'0 0.0
2017-Oct-09 12:29N 39°15' W 076°33'0 0.0
2017-Oct-09 12:00N 39°15' W 076°33'0 0.0
2017-Oct-09 11:30N 39°15' W 076°33'0 0.0
2017-Oct-09 11:00N 39°15' W 076°33'0 0.0
2017-Oct-09 10:30N 39°15' W 076°33'0 0.0
2017-Oct-09 10:00N 39°15' W 076°33'0 0.0
2017-Oct-09 09:30N 39°15' W 076°33'0 0.0
2017-Oct-09 09:00N 39°15' W 076°33'0 0.0
2017-Oct-09 08:30N 39°15' W 076°33'0 0.0
2017-Oct-09 08:01N 39°15' W 076°33'0 0.0
2017-Oct-09 07:30N 39°15' W 076°33'0 0.0
2017-Oct-09 07:00N 39°15' W 076°33'0 0.0
2017-Oct-09 06:30N 39°15' W 076°33'0 0.0
2017-Oct-09 06:00N 39°15' W 076°33'0 0.0
2017-Oct-09 05:30N 39°15' W 076°33'0 0.0
2017-Oct-09 05:00N 39°15' W 076°33'0 0.0
2017-Oct-09 04:30N 39°15' W 076°33'0 0.0
2017-Oct-09 04:00N 39°15' W 076°33'0 0.0
2017-Oct-09 03:30N 39°15' W 076°33'0 0.0
2017-Oct-09 03:00N 39°15' W 076°33'0 0.0
2017-Oct-09 02:30N 39°15' W 076°33'0 0.0
2017-Oct-09 02:00N 39°15' W 076°33'0 0.0
2017-Oct-09 01:30N 39°15' W 076°33'0 0.0
2017-Oct-09 01:00N 39°15' W 076°33'0 0.0
2017-Oct-09 00:30N 39°15' W 076°33'0 0.0
2017-Oct-09 00:00N 39°15' W 076°33'0 0.0
2017-Oct-08 23:30N 39°15' W 076°33'0 0.0
2017-Oct-08 23:00N 39°15' W 076°33'0 0.0
2017-Oct-08 22:30N 39°15' W 076°33'0 0.0
2017-Oct-08 22:00N 39°15' W 076°33'0 0.0
2017-Oct-08 21:30N 39°15' W 076°33'0 0.0
2017-Oct-08 21:00N 39°15' W 076°33'0 0.0
2017-Oct-08 20:30N 39°15' W 076°33'0 0.0
2017-Oct-08 20:00N 39°15' W 076°33'0 0.0
2017-Oct-08 19:30N 39°15' W 076°33'0 0.0
2017-Oct-08 19:00N 39°15' W 076°33'3 5.4
2017-Oct-08 18:30N 39°13' W 076°32'4 7.9
2017-Oct-08 17:57N 39°11' W 076°27'3 7.7
2017-Oct-08 17:30N 39°12' W 076°23'4 7.8
2017-Oct-08 16:59N 39°15' W 076°18'4 7.7
2017-Oct-08 16:29N 39°17' W 076°14'4 7.8
2017-Oct-08 16:00N 39°20' W 076°12'4 7.4
2017-Oct-08 15:30N 39°22' W 076°08'4 7.2
2017-Oct-08 15:00N 39°24' W 076°04'4 7.1
2017-Oct-08 14:30N 39°26' W 076°00'3 6.8
2017-Oct-08 14:00N 39°29' W 075°57'3 6.4
2017-Oct-08 13:30N 39°31' W 075°54'3 5.8
2017-Oct-08 13:00N 39°32' W 075°50'3 5.5
2017-Oct-08 12:30N 39°32' W 075°47'3 6.0
2017-Oct-08 12:00N 39°33' W 075°43'3 6.0
2017-Oct-08 11:30N 39°33' W 075°39'3 6.4
2017-Oct-08 11:00N 39°33' W 075°35'2 4.3
2017-Oct-08 10:30N 39°35' W 075°34'3 6.8
2017-Oct-08 10:00N 39°39' W 075°33'4 7.7
2017-Oct-08 09:30N 39°42' W 075°31'4 7.3
2017-Oct-08 09:00N 39°46' W 075°29'3 6.7
2017-Oct-08 08:30N 39°48' W 075°26'3 6.4
2017-Oct-08 08:01N 39°50' W 075°22'3 5.1
2017-Oct-08 07:30N 39°51' W 075°20'2 5.0
2017-Oct-08 07:00N 39°51' W 075°16'2 4.6
2017-Oct-08 06:31N 39°52' W 075°14'2 4.5
2017-Oct-08 06:01N 39°53' W 075°12'1 1.0
2017-Oct-08 05:30N 39°54' W 075°12'0 0.0
2017-Oct-08 05:01N 39°54' W 075°12'1 1.0
2017-Oct-08 04:31N 39°53' W 075°12'0 0.0
2017-Oct-08 04:00N 39°53' W 075°12'0 0.0
2017-Oct-08 03:30N 39°53' W 075°12'0 0.0
2017-Oct-08 03:00N 39°53' W 075°12'0 0.0
2017-Oct-08 02:30N 39°53' W 075°12'0 0.0
2017-Oct-08 02:00N 39°53' W 075°12'0 0.0
2017-Oct-08 01:30N 39°53' W 075°12'0 0.0
2017-Oct-08 01:00N 39°53' W 075°12'0 0.0
2017-Oct-08 00:30N 39°53' W 075°12'0 0.0
2017-Oct-08 00:00N 39°53' W 075°12'0 0.0
2017-Oct-07 23:31N 39°53' W 075°12'0 0.0
2017-Oct-07 23:00N 39°53' W 075°12'0 0.0
2017-Oct-07 22:30N 39°53' W 075°12'0 0.0
2017-Oct-07 22:00N 39°53' W 075°12'0 0.2
2017-Oct-07 21:31N 39°54' W 075°12'0 0.0
2017-Oct-07 21:01N 39°54' W 075°12'0 0.0
2017-Oct-07 20:30N 39°54' W 075°12'0 0.8
2017-Oct-07 20:01N 39°54' W 075°12'0 0.4
2017-Oct-07 19:30N 39°54' W 075°12'0 0.0
2017-Oct-07 19:01N 39°54' W 075°12'0 0.2
2017-Oct-07 18:30N 39°54' W 075°12'0 0.0
2017-Oct-07 18:00N 39°54' W 075°12'0 0.0
2017-Oct-07 17:30N 39°54' W 075°12'0 0.0
2017-Oct-07 17:01N 39°54' W 075°12'0 0.0
2017-Oct-07 16:30N 39°54' W 075°12'0 0.0
2017-Oct-07 16:00N 39°54' W 075°12'1 1.6
2017-Oct-07 15:30N 39°53' W 075°12'4 8.3
2017-Oct-07 15:00N 39°51' W 075°17'510.1
2017-Oct-07 14:30N 39°49' W 075°23'5 9.6
2017-Oct-07 14:00N 39°47' W 075°28'5 9.3
2017-Oct-07 13:31N 39°42' W 075°31'4 8.8
2017-Oct-07 13:01N 39°39' W 075°34'4 7.7
2017-Oct-07 12:31N 39°35' W 075°33'4 8.4
2017-Oct-07 12:01N 39°33' W 075°38'510.8
2017-Oct-07 11:30N 39°32' W 075°45'5 9.4
2017-Oct-07 11:01N 39°32' W 075°51'5 9.4
2017-Oct-07 10:31N 39°29' W 075°57'5 9.1
2017-Oct-07 10:01N 39°26' W 076°01'4 8.8
2017-Oct-07 09:31N 39°23' W 076°05'4 8.8
2017-Oct-07 09:01N 39°21' W 076°10'4 8.5
2017-Oct-07 08:30N 39°18' W 076°13'4 8.5
2017-Oct-07 08:00N 39°14' W 076°15'4 8.4
2017-Oct-07 07:30N 39°10' W 076°18'4 8.7
2017-Oct-07 07:01N 39°06' W 076°20'4 8.9
2017-Oct-07 06:30N 39°02' W 076°22'4 8.8
2017-Oct-07 06:01N 38°58' W 076°24'4 8.9
2017-Oct-07 05:31N 38°53' W 076°25'4 8.9
2017-Oct-07 05:01N 38°49' W 076°26'5 9.1
2017-Oct-07 04:30N 38°44' W 076°27'5 9.1
2017-Oct-07 04:00N 38°40' W 076°27'5 9.2
2017-Oct-07 03:31N 38°35' W 076°27'5 9.1
2017-Oct-07 03:00N 38°31' W 076°26'5 9.0
2017-Oct-07 02:30N 38°27' W 076°23'4 8.9
2017-Oct-07 02:00N 38°23' W 076°21'5 9.0
2017-Oct-07 01:27N 38°18' W 076°19'5 8.7
2017-Oct-07 00:51N 38°14' W 076°14'10 8.0
2017-Oct-06 23:35N 38°12' W 076°02'2 8.6
2017-Oct-06 23:23N 38°13' W 075°60'8 8.2
2017-Oct-06 22:21N 38°15' W 075°49'12 1.2
2017-Oct-06 12:31N 38°22' W 075°37'0 0.0
2017-Oct-06 12:30N 38°22' W 075°37'0 0.0
2017-Oct-06 11:58N 38°22' W 075°37'0 0.0
2017-Oct-06 10:57N 38°22' W 075°37'0 0.0
2017-Oct-06 10:30N 38°22' W 075°37'0 0.0
2017-Oct-06 10:00N 38°22' W 075°37'0 0.0
2017-Oct-06 09:29N 38°22' W 075°37'0 0.0
2017-Oct-06 09:00N 38°22' W 075°37'0 0.0
2017-Oct-06 08:30N 38°22' W 075°37'0 0.0
2017-Oct-06 08:00N 38°22' W 075°37'0 0.0
2017-Oct-06 07:31N 38°22' W 075°37'0 0.0
2017-Oct-06 07:00N 38°22' W 075°37'0 0.0
2017-Oct-06 06:30N 38°22' W 075°37'0 0.0
2017-Oct-06 06:00N 38°22' W 075°37'0 0.0
2017-Oct-06 05:30N 38°22' W 075°37'0 0.0
2017-Oct-06 05:00N 38°22' W 075°37'0 0.0
2017-Oct-06 04:30N 38°22' W 075°37'0 0.0
2017-Oct-06 04:00N 38°22' W 075°37'0 0.0
2017-Oct-06 03:13N 38°22' W 075°37'0 0.0
2017-Oct-05 23:31N 38°22' W 075°37'0 0.0
2017-Oct-05 23:27N 38°22' W 075°37'0 0.0
2017-Oct-05 22:55N 38°22' W 075°37'37 4.9
2017-Oct-05 15:18N 37°48' W 075°58'3 9.0
2017-Oct-05 15:00N 37°46' W 075°59'4 8.8
2017-Oct-05 14:30N 37°42' W 076°01'4 8.5
2017-Oct-05 14:00N 37°38' W 076°03'4 8.3
2017-Oct-05 13:31N 37°34' W 076°05'  

Dump ship's entire track history